sensor_id;sensor_type;location;lat;lon;timestamp;temperature;humidity
19085;DHT22;9675;51.538;6.728;2023-08-31T00:01:08;15.80;99.90
19085;DHT22;9675;51.538;6.728;2023-08-31T00:03:36;15.70;99.90
19085;DHT22;9675;51.538;6.728;2023-08-31T00:06:04;15.70;99.90
19085;DHT22;9675;51.538;6.728;2023-08-31T00:08:33;15.70;99.90
19085;DHT22;9675;51.538;6.728;2023-08-31T00:11:01;15.70;99.90
19085;DHT22;9675;51.538;6.728;2023-08-31T00:13:28;15.70;99.90
19085;DHT22;9675;51.538;6.728;2023-08-31T00:15:56;15.70;99.90
19085;DHT22;9675;51.538;6.728;2023-08-31T00:18:25;15.70;99.90
19085;DHT22;9675;51.538;6.728;2023-08-31T00:20:53;15.60;99.90
19085;DHT22;9675;51.538;6.728;2023-08-31T00:23:20;15.60;99.90
19085;DHT22;9675;51.538;6.728;2023-08-31T00:25:48;15.60;99.90
19085;DHT22;9675;51.538;6.728;2023-08-31T00:28:19;15.60;99.90
19085;DHT22;9675;51.538;6.728;2023-08-31T00:30:47;15.50;99.90
19085;DHT22;9675;51.538;6.728;2023-08-31T00:33:14;15.60;99.90
19085;DHT22;9675;51.538;6.728;2023-08-31T00:35:42;15.50;99.90
19085;DHT22;9675;51.538;6.728;2023-08-31T00:38:10;15.50;99.90
19085;DHT22;9675;51.538;6.728;2023-08-31T00:40:41;15.50;99.90
19085;DHT22;9675;51.538;6.728;2023-08-31T00:43:10;15.50;99.90
19085;DHT22;9675;51.538;6.728;2023-08-31T00:45:37;15.50;99.90
19085;DHT22;9675;51.538;6.728;2023-08-31T00:48:06;15.40;99.90
19085;DHT22;9675;51.538;6.728;2023-08-31T00:50:34;15.40;99.90
19085;DHT22;9675;51.538;6.728;2023-08-31T00:53:01;15.40;99.90
19085;DHT22;9675;51.538;6.728;2023-08-31T00:55:30;15.40;99.90
19085;DHT22;9675;51.538;6.728;2023-08-31T00:57:58;15.40;99.90
19085;DHT22;9675;51.538;6.728;2023-08-31T01:00:33;15.30;99.90
19085;DHT22;9675;51.538;6.728;2023-08-31T01:03:22;15.30;99.90
19085;DHT22;9675;51.538;6.728;2023-08-31T01:06:05;15.30;99.90
19085;DHT22;9675;51.538;6.728;2023-08-31T01:08:45;15.20;99.90
19085;DHT22;9675;51.538;6.728;2023-08-31T01:11:24;15.20;99.90
19085;DHT22;9675;51.538;6.728;2023-08-31T01:14:01;15.20;99.90
19085;DHT22;9675;51.538;6.728;2023-08-31T01:16:34;15.10;99.90
19085;DHT22;9675;51.538;6.728;2023-08-31T01:19:04;15.10;99.90
19085;DHT22;9675;51.538;6.728;2023-08-31T01:21:45;15.10;99.90
19085;DHT22;9675;51.538;6.728;2023-08-31T01:24:18;15.10;99.90
19085;DHT22;9675;51.538;6.728;2023-08-31T01:26:46;15.10;99.90
19085;DHT22;9675;51.538;6.728;2023-08-31T01:29:13;15.10;99.90
19085;DHT22;9675;51.538;6.728;2023-08-31T01:31:43;15.10;99.90
19085;DHT22;9675;51.538;6.728;2023-08-31T01:34:10;15.00;99.90
19085;DHT22;9675;51.538;6.728;2023-08-31T01:36:42;15.00;99.90
19085;DHT22;9675;51.538;6.728;2023-08-31T01:39:17;15.00;99.90
19085;DHT22;9675;51.538;6.728;2023-08-31T01:41:56;15.00;99.90
19085;DHT22;9675;51.538;6.728;2023-08-31T01:44:30;15.00;99.90
19085;DHT22;9675;51.538;6.728;2023-08-31T01:47:02;14.90;99.90
19085;DHT22;9675;51.538;6.728;2023-08-31T01:49:36;14.90;99.90
19085;DHT22;9675;51.538;6.728;2023-08-31T01:52:04;14.90;99.90
19085;DHT22;9675;51.538;6.728;2023-08-31T01:54:33;14.90;99.90
19085;DHT22;9675;51.538;6.728;2023-08-31T01:57:00;14.90;99.90
19085;DHT22;9675;51.538;6.728;2023-08-31T01:59:28;14.90;99.90
19085;DHT22;9675;51.538;6.728;2023-08-31T02:01:55;14.90;99.90
19085;DHT22;9675;51.538;6.728;2023-08-31T02:04:23;14.80;99.90
19085;DHT22;9675;51.538;6.728;2023-08-31T02:06:50;14.80;99.90
19085;DHT22;9675;51.538;6.728;2023-08-31T02:09:17;14.80;99.90
19085;DHT22;9675;51.538;6.728;2023-08-31T02:11:46;14.80;99.90
19085;DHT22;9675;51.538;6.728;2023-08-31T02:14:13;14.70;99.90
19085;DHT22;9675;51.538;6.728;2023-08-31T02:16:39;14.70;99.90
19085;DHT22;9675;51.538;6.728;2023-08-31T02:19:06;14.70;99.90
19085;DHT22;9675;51.538;6.728;2023-08-31T02:21:33;14.70;99.90
19085;DHT22;9675;51.538;6.728;2023-08-31T02:24:00;14.70;99.90
19085;DHT22;9675;51.538;6.728;2023-08-31T02:26:28;14.70;99.90
19085;DHT22;9675;51.538;6.728;2023-08-31T02:28:57;14.70;99.90
19085;DHT22;9675;51.538;6.728;2023-08-31T02:31:24;14.70;99.90
19085;DHT22;9675;51.538;6.728;2023-08-31T02:33:51;14.70;99.90
19085;DHT22;9675;51.538;6.728;2023-08-31T02:36:18;14.70;99.90
19085;DHT22;9675;51.538;6.728;2023-08-31T02:38:46;14.60;99.90
19085;DHT22;9675;51.538;6.728;2023-08-31T02:41:15;14.60;99.90
19085;DHT22;9675;51.538;6.728;2023-08-31T02:43:42;14.60;99.90
19085;DHT22;9675;51.538;6.728;2023-08-31T02:46:11;14.60;99.90
19085;DHT22;9675;51.538;6.728;2023-08-31T02:48:38;14.60;99.90
19085;DHT22;9675;51.538;6.728;2023-08-31T02:51:05;14.60;99.90
19085;DHT22;9675;51.538;6.728;2023-08-31T02:53:32;14.50;99.90
19085;DHT22;9675;51.538;6.728;2023-08-31T02:55:59;14.50;99.90
19085;DHT22;9675;51.538;6.728;2023-08-31T02:58:26;14.50;99.90
19085;DHT22;9675;51.538;6.728;2023-08-31T03:00:53;14.50;99.90
19085;DHT22;9675;51.538;6.728;2023-08-31T03:03:22;14.40;99.90
19085;DHT22;9675;51.538;6.728;2023-08-31T03:05:55;14.40;99.90
19085;DHT22;9675;51.538;6.728;2023-08-31T03:08:22;14.40;99.90
19085;DHT22;9675;51.538;6.728;2023-08-31T03:10:49;14.30;99.90
19085;DHT22;9675;51.538;6.728;2023-08-31T03:13:16;14.30;99.90
19085;DHT22;9675;51.538;6.728;2023-08-31T03:15:44;14.30;99.90
19085;DHT22;9675;51.538;6.728;2023-08-31T03:18:11;14.20;99.90
19085;DHT22;9675;51.538;6.728;2023-08-31T03:20:39;14.20;99.90
19085;DHT22;9675;51.538;6.728;2023-08-31T03:23:06;14.20;99.90
19085;DHT22;9675;51.538;6.728;2023-08-31T03:25:35;14.20;99.90
19085;DHT22;9675;51.538;6.728;2023-08-31T03:28:02;14.10;99.90
19085;DHT22;9675;51.538;6.728;2023-08-31T03:30:29;14.10;99.90
19085;DHT22;9675;51.538;6.728;2023-08-31T03:32:56;14.10;99.90
19085;DHT22;9675;51.538;6.728;2023-08-31T03:35:23;14.10;99.90
19085;DHT22;9675;51.538;6.728;2023-08-31T03:37:54;14.00;99.90
19085;DHT22;9675;51.538;6.728;2023-08-31T03:40:21;14.00;99.90
19085;DHT22;9675;51.538;6.728;2023-08-31T03:42:49;14.00;99.90
19085;DHT22;9675;51.538;6.728;2023-08-31T03:45:18;13.90;99.90
19085;DHT22;9675;51.538;6.728;2023-08-31T03:47:45;13.90;99.90
19085;DHT22;9675;51.538;6.728;2023-08-31T03:50:12;13.90;99.90
19085;DHT22;9675;51.538;6.728;2023-08-31T03:52:39;13.90;99.90
19085;DHT22;9675;51.538;6.728;2023-08-31T03:55:08;13.90;99.90
19085;DHT22;9675;51.538;6.728;2023-08-31T03:57:35;13.90;99.90
19085;DHT22;9675;51.538;6.728;2023-08-31T04:00:02;13.90;99.90
19085;DHT22;9675;51.538;6.728;2023-08-31T04:02:34;13.80;99.90
19085;DHT22;9675;51.538;6.728;2023-08-31T04:05:03;13.80;99.90
19085;DHT22;9675;51.538;6.728;2023-08-31T04:07:32;13.80;99.90
19085;DHT22;9675;51.538;6.728;2023-08-31T04:10:00;13.90;99.90
19085;DHT22;9675;51.538;6.728;2023-08-31T04:12:29;13.80;99.90
19085;DHT22;9675;51.538;6.728;2023-08-31T04:14:56;13.80;99.90
19085;DHT22;9675;51.538;6.728;2023-08-31T04:17:23;13.80;99.90
19085;DHT22;9675;51.538;6.728;2023-08-31T04:19:50;13.80;99.90
19085;DHT22;9675;51.538;6.728;2023-08-31T04:22:17;13.80;99.90
19085;DHT22;9675;51.538;6.728;2023-08-31T04:24:44;13.70;99.90
19085;DHT22;9675;51.538;6.728;2023-08-31T04:27:11;13.80;99.90
19085;DHT22;9675;51.538;6.728;2023-08-31T04:29:40;13.80;99.90
19085;DHT22;9675;51.538;6.728;2023-08-31T04:32:07;13.80;99.90
19085;DHT22;9675;51.538;6.728;2023-08-31T04:34:34;13.80;99.90
19085;DHT22;9675;51.538;6.728;2023-08-31T04:37:01;13.80;99.90
19085;DHT22;9675;51.538;6.728;2023-08-31T04:39:28;13.80;99.90
19085;DHT22;9675;51.538;6.728;2023-08-31T04:41:55;13.80;99.90
19085;DHT22;9675;51.538;6.728;2023-08-31T04:44:22;13.80;99.90
19085;DHT22;9675;51.538;6.728;2023-08-31T04:46:50;13.80;99.90
19085;DHT22;9675;51.538;6.728;2023-08-31T04:49:17;13.80;99.90
19085;DHT22;9675;51.538;6.728;2023-08-31T04:51:45;13.80;99.90
19085;DHT22;9675;51.538;6.728;2023-08-31T04:54:12;13.80;99.90
19085;DHT22;9675;51.538;6.728;2023-08-31T04:56:39;13.80;99.90
19085;DHT22;9675;51.538;6.728;2023-08-31T04:59:06;13.80;99.90
19085;DHT22;9675;51.538;6.728;2023-08-31T05:01:33;13.80;99.90
19085;DHT22;9675;51.538;6.728;2023-08-31T05:04:02;13.70;99.90
19085;DHT22;9675;51.538;6.728;2023-08-31T05:06:29;13.70;99.90
19085;DHT22;9675;51.538;6.728;2023-08-31T05:08:56;13.60;99.90
19085;DHT22;9675;51.538;6.728;2023-08-31T05:11:24;13.50;99.90
19085;DHT22;9675;51.538;6.728;2023-08-31T05:13:51;13.60;99.90
19085;DHT22;9675;51.538;6.728;2023-08-31T05:16:18;13.60;99.90
19085;DHT22;9675;51.538;6.728;2023-08-31T05:18:45;13.60;99.90
19085;DHT22;9675;51.538;6.728;2023-08-31T05:21:13;13.60;99.90
19085;DHT22;9675;51.538;6.728;2023-08-31T05:23:40;13.60;99.90
19085;DHT22;9675;51.538;6.728;2023-08-31T05:26:08;13.60;99.90
19085;DHT22;9675;51.538;6.728;2023-08-31T05:28:35;13.50;99.90
19085;DHT22;9675;51.538;6.728;2023-08-31T05:31:03;13.50;99.90
19085;DHT22;9675;51.538;6.728;2023-08-31T05:33:30;13.50;99.90
19085;DHT22;9675;51.538;6.728;2023-08-31T05:36:01;13.50;99.90
19085;DHT22;9675;51.538;6.728;2023-08-31T05:38:30;13.50;99.90
19085;DHT22;9675;51.538;6.728;2023-08-31T05:41:07;13.50;99.90
19085;DHT22;9675;51.538;6.728;2023-08-31T05:43:35;13.40;99.90
19085;DHT22;9675;51.538;6.728;2023-08-31T05:46:05;13.40;99.90
19085;DHT22;9675;51.538;6.728;2023-08-31T05:48:32;13.40;99.90
19085;DHT22;9675;51.538;6.728;2023-08-31T05:51:00;13.50;99.90
19085;DHT22;9675;51.538;6.728;2023-08-31T05:53:27;13.50;99.90
19085;DHT22;9675;51.538;6.728;2023-08-31T05:55:57;13.50;99.90
19085;DHT22;9675;51.538;6.728;2023-08-31T05:58:29;13.40;99.90
19085;DHT22;9675;51.538;6.728;2023-08-31T06:00:57;13.50;99.90
19085;DHT22;9675;51.538;6.728;2023-08-31T06:03:25;13.50;99.90
19085;DHT22;9675;51.538;6.728;2023-08-31T06:05:52;13.60;99.90
19085;DHT22;9675;51.538;6.728;2023-08-31T06:08:19;13.50;99.90
19085;DHT22;9675;51.538;6.728;2023-08-31T06:10:46;13.60;99.90
19085;DHT22;9675;51.538;6.728;2023-08-31T06:13:14;13.60;99.90
19085;DHT22;9675;51.538;6.728;2023-08-31T06:15:42;13.60;99.90
19085;DHT22;9675;51.538;6.728;2023-08-31T06:18:10;13.60;99.90
19085;DHT22;9675;51.538;6.728;2023-08-31T06:20:37;13.60;99.90
19085;DHT22;9675;51.538;6.728;2023-08-31T06:23:04;13.60;99.90
19085;DHT22;9675;51.538;6.728;2023-08-31T06:25:31;13.70;99.90
19085;DHT22;9675;51.538;6.728;2023-08-31T06:27:58;13.70;99.90
19085;DHT22;9675;51.538;6.728;2023-08-31T06:30:26;13.60;99.90
19085;DHT22;9675;51.538;6.728;2023-08-31T06:32:54;13.70;99.90
19085;DHT22;9675;51.538;6.728;2023-08-31T06:35:21;13.70;99.90
19085;DHT22;9675;51.538;6.728;2023-08-31T06:37:49;13.70;99.90
19085;DHT22;9675;51.538;6.728;2023-08-31T06:40:16;13.70;99.90
19085;DHT22;9675;51.538;6.728;2023-08-31T06:42:44;13.70;99.90
19085;DHT22;9675;51.538;6.728;2023-08-31T06:45:11;13.70;99.90
19085;DHT22;9675;51.538;6.728;2023-08-31T06:47:39;13.70;99.90
19085;DHT22;9675;51.538;6.728;2023-08-31T06:50:06;13.80;99.90
19085;DHT22;9675;51.538;6.728;2023-08-31T06:52:33;13.80;99.90
19085;DHT22;9675;51.538;6.728;2023-08-31T06:55:02;13.80;99.90
19085;DHT22;9675;51.538;6.728;2023-08-31T06:57:31;13.90;99.90
19085;DHT22;9675;51.538;6.728;2023-08-31T06:59:58;13.90;99.90
19085;DHT22;9675;51.538;6.728;2023-08-31T07:02:26;13.90;99.90
19085;DHT22;9675;51.538;6.728;2023-08-31T07:04:54;13.90;99.90
19085;DHT22;9675;51.538;6.728;2023-08-31T07:07:21;14.00;99.90
19085;DHT22;9675;51.538;6.728;2023-08-31T07:09:48;14.10;99.90
19085;DHT22;9675;51.538;6.728;2023-08-31T07:12:16;14.10;99.90
19085;DHT22;9675;51.538;6.728;2023-08-31T07:14:43;14.20;99.90
19085;DHT22;9675;51.538;6.728;2023-08-31T07:17:10;14.20;99.90
19085;DHT22;9675;51.538;6.728;2023-08-31T07:19:37;14.30;99.90
19085;DHT22;9675;51.538;6.728;2023-08-31T07:22:05;14.30;99.90
19085;DHT22;9675;51.538;6.728;2023-08-31T07:24:32;14.30;99.90
19085;DHT22;9675;51.538;6.728;2023-08-31T07:27:03;14.30;99.90
19085;DHT22;9675;51.538;6.728;2023-08-31T07:29:31;14.40;99.90
19085;DHT22;9675;51.538;6.728;2023-08-31T07:31:58;14.40;99.90
19085;DHT22;9675;51.538;6.728;2023-08-31T07:34:25;14.40;99.90
19085;DHT22;9675;51.538;6.728;2023-08-31T07:36:53;14.40;99.90
19085;DHT22;9675;51.538;6.728;2023-08-31T07:39:21;14.40;99.90
19085;DHT22;9675;51.538;6.728;2023-08-31T07:41:48;14.50;99.90
19085;DHT22;9675;51.538;6.728;2023-08-31T07:44:15;14.50;99.90
19085;DHT22;9675;51.538;6.728;2023-08-31T07:46:42;14.60;99.90
19085;DHT22;9675;51.538;6.728;2023-08-31T07:49:09;14.70;99.90
19085;DHT22;9675;51.538;6.728;2023-08-31T07:51:36;14.70;99.90
19085;DHT22;9675;51.538;6.728;2023-08-31T07:54:03;14.80;99.90
19085;DHT22;9675;51.538;6.728;2023-08-31T07:56:32;14.90;99.90
19085;DHT22;9675;51.538;6.728;2023-08-31T07:58:59;14.90;99.90
19085;DHT22;9675;51.538;6.728;2023-08-31T08:01:26;15.00;99.90
19085;DHT22;9675;51.538;6.728;2023-08-31T08:03:53;15.10;99.90
19085;DHT22;9675;51.538;6.728;2023-08-31T08:06:20;15.20;99.90
19085;DHT22;9675;51.538;6.728;2023-08-31T08:08:47;15.20;99.90
19085;DHT22;9675;51.538;6.728;2023-08-31T08:11:14;15.30;99.90
19085;DHT22;9675;51.538;6.728;2023-08-31T08:13:42;15.40;99.90
19085;DHT22;9675;51.538;6.728;2023-08-31T08:16:09;15.50;99.90
19085;DHT22;9675;51.538;6.728;2023-08-31T08:18:36;15.60;99.90
19085;DHT22;9675;51.538;6.728;2023-08-31T08:21:03;15.70;99.90
19085;DHT22;9675;51.538;6.728;2023-08-31T08:23:30;15.70;99.90
19085;DHT22;9675;51.538;6.728;2023-08-31T08:25:57;15.90;99.90
19085;DHT22;9675;51.538;6.728;2023-08-31T08:28:25;16.00;99.90
19085;DHT22;9675;51.538;6.728;2023-08-31T08:30:55;16.10;99.90
19085;DHT22;9675;51.538;6.728;2023-08-31T08:33:22;16.10;99.90
19085;DHT22;9675;51.538;6.728;2023-08-31T08:35:49;16.20;99.90
19085;DHT22;9675;51.538;6.728;2023-08-31T08:38:16;16.30;99.90
19085;DHT22;9675;51.538;6.728;2023-08-31T08:40:43;16.40;99.90
19085;DHT22;9675;51.538;6.728;2023-08-31T08:43:11;16.50;99.90
19085;DHT22;9675;51.538;6.728;2023-08-31T08:45:39;16.60;99.90
19085;DHT22;9675;51.538;6.728;2023-08-31T08:48:09;16.60;99.90
19085;DHT22;9675;51.538;6.728;2023-08-31T08:50:36;16.80;99.90
19085;DHT22;9675;51.538;6.728;2023-08-31T08:53:04;16.90;99.90
19085;DHT22;9675;51.538;6.728;2023-08-31T08:55:32;17.00;99.90
19085;DHT22;9675;51.538;6.728;2023-08-31T08:58:00;17.00;99.90
19085;DHT22;9675;51.538;6.728;2023-08-31T09:00:27;17.10;99.90
19085;DHT22;9675;51.538;6.728;2023-08-31T09:02:55;17.20;99.90
19085;DHT22;9675;51.538;6.728;2023-08-31T09:05:23;17.30;99.90
19085;DHT22;9675;51.538;6.728;2023-08-31T09:08:06;17.40;99.90
19085;DHT22;9675;51.538;6.728;2023-08-31T09:10:36;17.50;99.90
19085;DHT22;9675;51.538;6.728;2023-08-31T09:13:06;17.60;99.90
19085;DHT22;9675;51.538;6.728;2023-08-31T09:15:44;17.70;99.90
19085;DHT22;9675;51.538;6.728;2023-08-31T09:18:16;17.80;99.90
19085;DHT22;9675;51.538;6.728;2023-08-31T09:20:51;17.90;99.90
19085;DHT22;9675;51.538;6.728;2023-08-31T09:23:19;18.00;99.90
19085;DHT22;9675;51.538;6.728;2023-08-31T09:25:48;18.10;99.90
19085;DHT22;9675;51.538;6.728;2023-08-31T09:28:18;18.20;99.90
19085;DHT22;9675;51.538;6.728;2023-08-31T09:30:47;18.40;99.90
19085;DHT22;9675;51.538;6.728;2023-08-31T09:33:16;18.50;99.90
19085;DHT22;9675;51.538;6.728;2023-08-31T09:35:48;18.60;99.90
19085;DHT22;9675;51.538;6.728;2023-08-31T09:38:18;18.70;99.90
19085;DHT22;9675;51.538;6.728;2023-08-31T09:40:46;18.70;99.90
19085;DHT22;9675;51.538;6.728;2023-08-31T09:43:19;18.90;99.90
19085;DHT22;9675;51.538;6.728;2023-08-31T09:45:47;18.90;99.90
19085;DHT22;9675;51.538;6.728;2023-08-31T09:48:16;19.00;99.90
19085;DHT22;9675;51.538;6.728;2023-08-31T09:50:44;19.10;99.90
19085;DHT22;9675;51.538;6.728;2023-08-31T09:53:16;19.20;99.90
19085;DHT22;9675;51.538;6.728;2023-08-31T09:55:43;19.30;99.90
19085;DHT22;9675;51.538;6.728;2023-08-31T09:58:11;19.40;99.90
19085;DHT22;9675;51.538;6.728;2023-08-31T10:00:40;19.50;99.90
19085;DHT22;9675;51.538;6.728;2023-08-31T10:03:08;19.60;99.90
19085;DHT22;9675;51.538;6.728;2023-08-31T10:05:37;19.60;99.90
19085;DHT22;9675;51.538;6.728;2023-08-31T10:08:05;19.70;99.90
19085;DHT22;9675;51.538;6.728;2023-08-31T10:10:34;19.80;99.90
19085;DHT22;9675;51.538;6.728;2023-08-31T10:13:04;19.90;99.90
19085;DHT22;9675;51.538;6.728;2023-08-31T10:15:33;20.00;99.90
19085;DHT22;9675;51.538;6.728;2023-08-31T10:18:03;20.10;99.90
19085;DHT22;9675;51.538;6.728;2023-08-31T10:20:32;20.20;99.90
19085;DHT22;9675;51.538;6.728;2023-08-31T10:23:02;20.30;99.90
19085;DHT22;9675;51.538;6.728;2023-08-31T10:26:00;20.40;99.90
19085;DHT22;9675;51.538;6.728;2023-08-31T10:28:29;20.50;99.90
19085;DHT22;9675;51.538;6.728;2023-08-31T10:31:02;20.60;99.90
19085;DHT22;9675;51.538;6.728;2023-08-31T10:33:34;20.60;99.90
19085;DHT22;9675;51.538;6.728;2023-08-31T10:36:09;20.70;99.90
19085;DHT22;9675;51.538;6.728;2023-08-31T10:38:38;20.80;99.90
19085;DHT22;9675;51.538;6.728;2023-08-31T10:41:22;20.90;99.90
19085;DHT22;9675;51.538;6.728;2023-08-31T10:43:52;21.00;99.90
19085;DHT22;9675;51.538;6.728;2023-08-31T10:46:30;21.00;99.90
19085;DHT22;9675;51.538;6.728;2023-08-31T10:48:59;21.10;99.90
19085;DHT22;9675;51.538;6.728;2023-08-31T10:51:30;21.10;99.90
19085;DHT22;9675;51.538;6.728;2023-08-31T10:54:05;21.20;99.90
19085;DHT22;9675;51.538;6.728;2023-08-31T10:56:52;21.30;99.90
19085;DHT22;9675;51.538;6.728;2023-08-31T10:59:21;21.30;99.90
19085;DHT22;9675;51.538;6.728;2023-08-31T11:01:52;21.50;99.90
19085;DHT22;9675;51.538;6.728;2023-08-31T11:04:21;21.60;99.90
19085;DHT22;9675;51.538;6.728;2023-08-31T11:06:49;21.60;99.90
19085;DHT22;9675;51.538;6.728;2023-08-31T11:09:35;21.70;99.90
19085;DHT22;9675;51.538;6.728;2023-08-31T11:12:04;21.80;99.90
19085;DHT22;9675;51.538;6.728;2023-08-31T11:14:31;21.80;99.90
19085;DHT22;9675;51.538;6.728;2023-08-31T11:16:59;21.80;99.90
19085;DHT22;9675;51.538;6.728;2023-08-31T11:19:26;21.90;99.90
19085;DHT22;9675;51.538;6.728;2023-08-31T11:21:54;21.90;99.90
19085;DHT22;9675;51.538;6.728;2023-08-31T11:24:22;22.00;99.90
19085;DHT22;9675;51.538;6.728;2023-08-31T11:26:50;22.00;99.90
19085;DHT22;9675;51.538;6.728;2023-08-31T11:29:18;22.10;99.90
19085;DHT22;9675;51.538;6.728;2023-08-31T11:31:45;22.10;99.90
19085;DHT22;9675;51.538;6.728;2023-08-31T11:34:12;22.10;99.90
19085;DHT22;9675;51.538;6.728;2023-08-31T11:36:41;22.20;99.90
19085;DHT22;9675;51.538;6.728;2023-08-31T11:39:09;22.20;99.90
19085;DHT22;9675;51.538;6.728;2023-08-31T11:41:37;22.20;99.90
19085;DHT22;9675;51.538;6.728;2023-08-31T11:44:07;22.30;99.90
19085;DHT22;9675;51.538;6.728;2023-08-31T11:46:36;22.30;99.90
19085;DHT22;9675;51.538;6.728;2023-08-31T11:49:05;22.40;99.90
19085;DHT22;9675;51.538;6.728;2023-08-31T11:51:33;22.40;99.90
19085;DHT22;9675;51.538;6.728;2023-08-31T11:54:01;22.50;99.90
19085;DHT22;9675;51.538;6.728;2023-08-31T11:56:38;22.60;99.90
19085;DHT22;9675;51.538;6.728;2023-08-31T11:59:09;22.60;99.90
19085;DHT22;9675;51.538;6.728;2023-08-31T12:01:40;22.70;99.90
19085;DHT22;9675;51.538;6.728;2023-08-31T12:04:12;22.80;99.90
19085;DHT22;9675;51.538;6.728;2023-08-31T12:06:40;22.80;99.90
19085;DHT22;9675;51.538;6.728;2023-08-31T12:09:08;22.90;99.90
19085;DHT22;9675;51.538;6.728;2023-08-31T12:11:35;23.00;99.90
19085;DHT22;9675;51.538;6.728;2023-08-31T12:14:03;23.00;99.90
19085;DHT22;9675;51.538;6.728;2023-08-31T12:16:46;23.10;99.90
19085;DHT22;9675;51.538;6.728;2023-08-31T12:19:13;23.20;99.90
19085;DHT22;9675;51.538;6.728;2023-08-31T12:21:41;23.20;99.90
19085;DHT22;9675;51.538;6.728;2023-08-31T12:24:09;23.30;99.90
19085;DHT22;9675;51.538;6.728;2023-08-31T12:26:36;23.40;99.90
19085;DHT22;9675;51.538;6.728;2023-08-31T12:29:04;23.40;99.90
19085;DHT22;9675;51.538;6.728;2023-08-31T12:31:31;23.50;99.90
19085;DHT22;9675;51.538;6.728;2023-08-31T12:34:00;23.50;99.90
19085;DHT22;9675;51.538;6.728;2023-08-31T12:36:30;23.60;99.90
19085;DHT22;9675;51.538;6.728;2023-08-31T12:38:58;23.60;99.90
19085;DHT22;9675;51.538;6.728;2023-08-31T12:41:29;23.70;99.90
19085;DHT22;9675;51.538;6.728;2023-08-31T12:43:56;23.70;99.90
19085;DHT22;9675;51.538;6.728;2023-08-31T12:46:24;23.70;99.90
19085;DHT22;9675;51.538;6.728;2023-08-31T12:48:52;23.80;99.90
19085;DHT22;9675;51.538;6.728;2023-08-31T12:51:20;23.80;99.90
19085;DHT22;9675;51.538;6.728;2023-08-31T12:53:47;23.80;99.90
19085;DHT22;9675;51.538;6.728;2023-08-31T12:56:15;23.90;99.90
19085;DHT22;9675;51.538;6.728;2023-08-31T12:58:47;23.90;99.90
19085;DHT22;9675;51.538;6.728;2023-08-31T13:01:15;23.90;99.90
19085;DHT22;9675;51.538;6.728;2023-08-31T13:03:42;24.00;99.90
19085;DHT22;9675;51.538;6.728;2023-08-31T13:06:09;24.10;99.90
19085;DHT22;9675;51.538;6.728;2023-08-31T13:08:37;24.00;99.90
19085;DHT22;9675;51.538;6.728;2023-08-31T13:11:04;24.10;99.90
19085;DHT22;9675;51.538;6.728;2023-08-31T13:13:32;24.10;99.90
19085;DHT22;9675;51.538;6.728;2023-08-31T13:15:59;24.10;99.90
19085;DHT22;9675;51.538;6.728;2023-08-31T13:18:28;24.10;99.90
19085;DHT22;9675;51.538;6.728;2023-08-31T13:20:55;24.20;99.90
19085;DHT22;9675;51.538;6.728;2023-08-31T13:23:23;24.20;99.90
19085;DHT22;9675;51.538;6.728;2023-08-31T13:25:51;24.30;99.90
19085;DHT22;9675;51.538;6.728;2023-08-31T13:28:18;24.30;99.90
19085;DHT22;9675;51.538;6.728;2023-08-31T13:30:45;24.30;99.90
19085;DHT22;9675;51.538;6.728;2023-08-31T13:33:13;24.30;99.90
19085;DHT22;9675;51.538;6.728;2023-08-31T13:35:40;24.30;99.90
19085;DHT22;9675;51.538;6.728;2023-08-31T13:38:07;24.30;99.90
19085;DHT22;9675;51.538;6.728;2023-08-31T13:40:34;24.40;99.90
19085;DHT22;9675;51.538;6.728;2023-08-31T13:43:04;24.30;99.90
19085;DHT22;9675;51.538;6.728;2023-08-31T13:45:31;24.30;99.90
19085;DHT22;9675;51.538;6.728;2023-08-31T13:47:59;24.20;99.90
19085;DHT22;9675;51.538;6.728;2023-08-31T13:50:30;24.20;99.90
19085;DHT22;9675;51.538;6.728;2023-08-31T13:52:57;24.10;99.90
19085;DHT22;9675;51.538;6.728;2023-08-31T13:55:24;24.10;99.90
19085;DHT22;9675;51.538;6.728;2023-08-31T13:57:52;24.00;99.90
19085;DHT22;9675;51.538;6.728;2023-08-31T14:00:21;24.00;99.90
19085;DHT22;9675;51.538;6.728;2023-08-31T14:02:48;23.90;99.90
19085;DHT22;9675;51.538;6.728;2023-08-31T14:05:15;23.80;99.90
19085;DHT22;9675;51.538;6.728;2023-08-31T14:07:42;23.80;99.90
19085;DHT22;9675;51.538;6.728;2023-08-31T14:10:09;23.70;99.90
19085;DHT22;9675;51.538;6.728;2023-08-31T14:12:36;23.70;99.90
19085;DHT22;9675;51.538;6.728;2023-08-31T14:15:05;23.60;99.90
19085;DHT22;9675;51.538;6.728;2023-08-31T14:17:34;23.60;99.90
19085;DHT22;9675;51.538;6.728;2023-08-31T14:20:01;23.40;99.90
19085;DHT22;9675;51.538;6.728;2023-08-31T14:22:33;23.40;99.90
19085;DHT22;9675;51.538;6.728;2023-08-31T14:25:00;23.40;99.90
19085;DHT22;9675;51.538;6.728;2023-08-31T14:27:27;23.30;99.90
19085;DHT22;9675;51.538;6.728;2023-08-31T14:29:56;23.30;99.90
19085;DHT22;9675;51.538;6.728;2023-08-31T14:32:23;23.30;99.90
19085;DHT22;9675;51.538;6.728;2023-08-31T14:34:53;23.30;99.90
19085;DHT22;9675;51.538;6.728;2023-08-31T14:37:21;23.30;99.90
19085;DHT22;9675;51.538;6.728;2023-08-31T14:39:48;23.20;99.90
19085;DHT22;9675;51.538;6.728;2023-08-31T14:42:15;23.20;99.90
19085;DHT22;9675;51.538;6.728;2023-08-31T14:44:43;23.20;99.90
19085;DHT22;9675;51.538;6.728;2023-08-31T14:47:10;23.10;99.90
19085;DHT22;9675;51.538;6.728;2023-08-31T14:49:39;23.10;99.90
19085;DHT22;9675;51.538;6.728;2023-08-31T14:52:08;23.00;99.90
19085;DHT22;9675;51.538;6.728;2023-08-31T14:54:35;23.00;99.90
19085;DHT22;9675;51.538;6.728;2023-08-31T14:57:03;23.00;99.90
19085;DHT22;9675;51.538;6.728;2023-08-31T14:59:31;23.00;99.90
19085;DHT22;9675;51.538;6.728;2023-08-31T15:01:59;22.90;99.90
19085;DHT22;9675;51.538;6.728;2023-08-31T15:04:26;22.90;99.90
19085;DHT22;9675;51.538;6.728;2023-08-31T15:06:53;22.90;99.90
19085;DHT22;9675;51.538;6.728;2023-08-31T15:09:23;22.80;99.90
19085;DHT22;9675;51.538;6.728;2023-08-31T15:11:50;22.80;99.90
19085;DHT22;9675;51.538;6.728;2023-08-31T15:14:17;22.70;99.90
19085;DHT22;9675;51.538;6.728;2023-08-31T15:16:44;22.70;99.90
19085;DHT22;9675;51.538;6.728;2023-08-31T15:19:11;22.70;99.90
19085;DHT22;9675;51.538;6.728;2023-08-31T15:21:38;22.60;99.90
19085;DHT22;9675;51.538;6.728;2023-08-31T15:24:06;22.60;99.90
19085;DHT22;9675;51.538;6.728;2023-08-31T15:26:34;22.60;99.90
19085;DHT22;9675;51.538;6.728;2023-08-31T15:29:01;22.50;99.90
19085;DHT22;9675;51.538;6.728;2023-08-31T15:31:29;22.50;99.90
19085;DHT22;9675;51.538;6.728;2023-08-31T15:33:56;22.40;99.90
19085;DHT22;9675;51.538;6.728;2023-08-31T15:36:23;22.30;99.90
19085;DHT22;9675;51.538;6.728;2023-08-31T15:38:50;22.30;99.90
19085;DHT22;9675;51.538;6.728;2023-08-31T15:41:17;22.20;99.90
19085;DHT22;9675;51.538;6.728;2023-08-31T15:43:46;22.20;99.90
19085;DHT22;9675;51.538;6.728;2023-08-31T15:46:13;22.10;99.90
19085;DHT22;9675;51.538;6.728;2023-08-31T15:48:42;22.10;99.90
19085;DHT22;9675;51.538;6.728;2023-08-31T15:51:09;22.10;99.90
19085;DHT22;9675;51.538;6.728;2023-08-31T15:53:36;22.10;99.90